sensor_id;sensor_type;location;lat;lon;timestamp;P1;durP1;ratioP1;P2;durP2;ratioP2
76699;SDS011;65628;44.498;0.166;2023-05-10T00:04:51;16.03;;;3.03;;
76699;SDS011;65628;44.498;0.166;2023-05-10T00:10:23;13.70;;;3.07;;
76699;SDS011;65628;44.498;0.166;2023-05-10T00:15:56;17.33;;;3.90;;
76699;SDS011;65628;44.498;0.166;2023-05-10T00:21:28;17.77;;;4.53;;
76699;SDS011;65628;44.498;0.166;2023-05-10T00:27:01;18.47;;;3.37;;
76699;SDS011;65628;44.498;0.166;2023-05-10T00:32:34;16.83;;;3.77;;
76699;SDS011;65628;44.498;0.166;2023-05-10T00:38:09;24.97;;;3.80;;
76699;SDS011;65628;44.498;0.166;2023-05-10T00:43:41;19.83;;;4.60;;
76699;SDS011;65628;44.498;0.166;2023-05-10T00:49:14;17.70;;;3.67;;
76699;SDS011;65628;44.498;0.166;2023-05-10T00:54:46;28.63;;;5.50;;
76699;SDS011;65628;44.498;0.166;2023-05-10T01:00:18;26.30;;;5.30;;
76699;SDS011;65628;44.498;0.166;2023-05-10T01:05:51;20.67;;;4.17;;
76699;SDS011;65628;44.498;0.166;2023-05-10T01:11:24;24.50;;;4.53;;
76699;SDS011;65628;44.498;0.166;2023-05-10T01:16:57;25.87;;;4.70;;
76699;SDS011;65628;44.498;0.166;2023-05-10T01:22:35;24.57;;;4.87;;
76699;SDS011;65628;44.498;0.166;2023-05-10T01:28:07;19.40;;;4.23;;
76699;SDS011;65628;44.498;0.166;2023-05-10T01:33:35;26.73;;;5.20;;
76699;SDS011;65628;44.498;0.166;2023-05-10T01:39:08;18.27;;;4.20;;
76699;SDS011;65628;44.498;0.166;2023-05-10T01:44:39;20.03;;;3.87;;
76699;SDS011;65628;44.498;0.166;2023-05-10T01:50:15;12.23;;;3.00;;
76699;SDS011;65628;44.498;0.166;2023-05-10T01:55:47;22.07;;;4.10;;
76699;SDS011;65628;44.498;0.166;2023-05-10T02:01:19;17.73;;;4.07;;
76699;SDS011;65628;44.498;0.166;2023-05-10T02:06:51;23.70;;;3.73;;
76699;SDS011;65628;44.498;0.166;2023-05-10T02:12:24;23.20;;;4.67;;
76699;SDS011;65628;44.498;0.166;2023-05-10T02:17:57;17.37;;;4.40;;
76699;SDS011;65628;44.498;0.166;2023-05-10T02:23:30;26.80;;;4.63;;
76699;SDS011;65628;44.498;0.166;2023-05-10T02:29:04;20.70;;;4.70;;
76699;SDS011;65628;44.498;0.166;2023-05-10T02:34:36;21.83;;;4.50;;
76699;SDS011;65628;44.498;0.166;2023-05-10T02:40:08;15.07;;;3.83;;
76699;SDS011;65628;44.498;0.166;2023-05-10T02:45:41;13.77;;;4.10;;
76699;SDS011;65628;44.498;0.166;2023-05-10T02:51:14;25.80;;;4.83;;
76699;SDS011;65628;44.498;0.166;2023-05-10T02:56:48;17.53;;;3.93;;
76699;SDS011;65628;44.498;0.166;2023-05-10T03:02:19;15.73;;;3.63;;
76699;SDS011;65628;44.498;0.166;2023-05-10T03:07:52;20.03;;;4.03;;
76699;SDS011;65628;44.498;0.166;2023-05-10T03:13:27;11.80;;;2.47;;
76699;SDS011;65628;44.498;0.166;2023-05-10T03:19:01;15.50;;;2.97;;
76699;SDS011;65628;44.498;0.166;2023-05-10T03:24:31;11.33;;;3.07;;
76699;SDS011;65628;44.498;0.166;2023-05-10T03:30:04;14.17;;;2.70;;
76699;SDS011;65628;44.498;0.166;2023-05-10T03:35:37;12.80;;;3.40;;
76699;SDS011;65628;44.498;0.166;2023-05-10T03:41:10;11.43;;;3.43;;
76699;SDS011;65628;44.498;0.166;2023-05-10T03:46:43;12.43;;;3.30;;
76699;SDS011;65628;44.498;0.166;2023-05-10T03:52:15;12.70;;;3.20;;
76699;SDS011;65628;44.498;0.166;2023-05-10T03:57:49;14.43;;;3.33;;
76699;SDS011;65628;44.498;0.166;2023-05-10T04:03:19;18.83;;;3.67;;
76699;SDS011;65628;44.498;0.166;2023-05-10T04:08:52;20.27;;;4.03;;
76699;SDS011;65628;44.498;0.166;2023-05-10T04:14:25;15.00;;;4.13;;
76699;SDS011;65628;44.498;0.166;2023-05-10T04:19:57;16.33;;;3.63;;
76699;SDS011;65628;44.498;0.166;2023-05-10T04:25:30;10.10;;;3.10;;
76699;SDS011;65628;44.498;0.166;2023-05-10T04:31:03;12.70;;;2.80;;
76699;SDS011;65628;44.498;0.166;2023-05-10T04:36:36;19.80;;;3.93;;
76699;SDS011;65628;44.498;0.166;2023-05-10T04:42:06;18.53;;;3.47;;
76699;SDS011;65628;44.498;0.166;2023-05-10T04:47:39;12.40;;;3.50;;
76699;SDS011;65628;44.498;0.166;2023-05-10T04:53:12;11.87;;;2.50;;
76699;SDS011;65628;44.498;0.166;2023-05-10T04:58:44;16.40;;;3.30;;
76699;SDS011;65628;44.498;0.166;2023-05-10T05:04:16;13.10;;;3.47;;
76699;SDS011;65628;44.498;0.166;2023-05-10T05:09:49;14.37;;;3.63;;
76699;SDS011;65628;44.498;0.166;2023-05-10T05:15:22;17.00;;;3.80;;
76699;SDS011;65628;44.498;0.166;2023-05-10T05:20:55;17.37;;;4.40;;
76699;SDS011;65628;44.498;0.166;2023-05-10T05:26:28;14.97;;;3.83;;
76699;SDS011;65628;44.498;0.166;2023-05-10T05:32:01;13.30;;;3.90;;
76699;SDS011;65628;44.498;0.166;2023-05-10T05:37:34;15.93;;;3.37;;
76699;SDS011;65628;44.498;0.166;2023-05-10T05:43:06;12.37;;;3.40;;
76699;SDS011;65628;44.498;0.166;2023-05-10T05:48:39;14.87;;;3.77;;
76699;SDS011;65628;44.498;0.166;2023-05-10T05:54:12;13.67;;;3.27;;
76699;SDS011;65628;44.498;0.166;2023-05-10T05:59:44;15.90;;;3.43;;
76699;SDS011;65628;44.498;0.166;2023-05-10T06:05:17;13.27;;;4.00;;
76699;SDS011;65628;44.498;0.166;2023-05-10T06:10:49;13.53;;;3.93;;
76699;SDS011;65628;44.498;0.166;2023-05-10T06:16:22;11.27;;;3.00;;
76699;SDS011;65628;44.498;0.166;2023-05-10T06:21:55;20.83;;;3.80;;
76699;SDS011;65628;44.498;0.166;2023-05-10T06:27:27;11.03;;;3.10;;
76699;SDS011;65628;44.498;0.166;2023-05-10T06:33:00;16.87;;;4.10;;
76699;SDS011;65628;44.498;0.166;2023-05-10T06:38:34;8.83;;;2.90;;
76699;SDS011;65628;44.498;0.166;2023-05-10T06:44:06;12.37;;;3.20;;
76699;SDS011;65628;44.498;0.166;2023-05-10T06:49:38;15.60;;;3.50;;
76699;SDS011;65628;44.498;0.166;2023-05-10T06:55:10;14.67;;;2.57;;
76699;SDS011;65628;44.498;0.166;2023-05-10T07:00:45;11.43;;;2.70;;
76699;SDS011;65628;44.498;0.166;2023-05-10T07:06:16;16.77;;;3.43;;
76699;SDS011;65628;44.498;0.166;2023-05-10T07:11:49;12.57;;;2.60;;
76699;SDS011;65628;44.498;0.166;2023-05-10T07:17:23;9.47;;;2.53;;
76699;SDS011;65628;44.498;0.166;2023-05-10T07:22:56;12.87;;;2.83;;
76699;SDS011;65628;44.498;0.166;2023-05-10T07:28:29;15.07;;;2.67;;
76699;SDS011;65628;44.498;0.166;2023-05-10T07:34:02;14.73;;;2.83;;
76699;SDS011;65628;44.498;0.166;2023-05-10T07:39:36;11.73;;;2.23;;
76699;SDS011;65628;44.498;0.166;2023-05-10T07:45:09;11.30;;;2.20;;
76699;SDS011;65628;44.498;0.166;2023-05-10T07:50:42;16.33;;;2.00;;
76699;SDS011;65628;44.498;0.166;2023-05-10T07:56:23;7.27;;;1.83;;
76699;SDS011;65628;44.498;0.166;2023-05-10T08:01:49;8.90;;;1.67;;
76699;SDS011;65628;44.498;0.166;2023-05-10T08:07:21;6.47;;;2.13;;
76699;SDS011;65628;44.498;0.166;2023-05-10T08:12:53;7.53;;;1.67;;
76699;SDS011;65628;44.498;0.166;2023-05-10T08:18:26;9.83;;;1.83;;
76699;SDS011;65628;44.498;0.166;2023-05-10T08:23:59;8.80;;;1.60;;
76699;SDS011;65628;44.498;0.166;2023-05-10T08:29:32;10.23;;;1.93;;
76699;SDS011;65628;44.498;0.166;2023-05-10T08:35:04;12.47;;;2.20;;
76699;SDS011;65628;44.498;0.166;2023-05-10T08:40:37;11.27;;;2.67;;
76699;SDS011;65628;44.498;0.166;2023-05-10T08:46:09;7.73;;;1.80;;
76699;SDS011;65628;44.498;0.166;2023-05-10T08:51:43;12.13;;;2.10;;
76699;SDS011;65628;44.498;0.166;2023-05-10T08:57:15;8.97;;;1.80;;
76699;SDS011;65628;44.498;0.166;2023-05-10T09:02:48;6.00;;;1.40;;
76699;SDS011;65628;44.498;0.166;2023-05-10T09:08:20;8.67;;;1.60;;
76699;SDS011;65628;44.498;0.166;2023-05-10T09:13:52;7.30;;;2.47;;
76699;SDS011;65628;44.498;0.166;2023-05-10T09:19:25;10.00;;;2.00;;
76699;SDS011;65628;44.498;0.166;2023-05-10T09:25:05;6.63;;;1.40;;
76699;SDS011;65628;44.498;0.166;2023-05-10T09:30:31;6.43;;;1.67;;
76699;SDS011;65628;44.498;0.166;2023-05-10T09:36:06;8.50;;;2.00;;
76699;SDS011;65628;44.498;0.166;2023-05-10T09:41:37;6.80;;;1.80;;
76699;SDS011;65628;44.498;0.166;2023-05-10T09:47:10;11.40;;;1.93;;
76699;SDS011;65628;44.498;0.166;2023-05-10T09:52:48;13.83;;;3.10;;
76699;SDS011;65628;44.498;0.166;2023-05-10T09:58:16;11.60;;;1.90;;
76699;SDS011;65628;44.498;0.166;2023-05-10T10:03:47;7.20;;;1.70;;
76699;SDS011;65628;44.498;0.166;2023-05-10T10:09:21;7.57;;;2.30;;
76699;SDS011;65628;44.498;0.166;2023-05-10T10:14:54;11.77;;;2.33;;
76699;SDS011;65628;44.498;0.166;2023-05-10T10:20:26;5.40;;;1.90;;
76699;SDS011;65628;44.498;0.166;2023-05-10T10:26:00;6.00;;;1.40;;
76699;SDS011;65628;44.498;0.166;2023-05-10T10:31:34;6.03;;;1.20;;
76699;SDS011;65628;44.498;0.166;2023-05-10T10:37:04;3.50;;;0.77;;
76699;SDS011;65628;44.498;0.166;2023-05-10T10:53:41;4.17;;;1.20;;
76699;SDS011;65628;44.498;0.166;2023-05-10T10:59:14;2.60;;;1.00;;
76699;SDS011;65628;44.498;0.166;2023-05-10T11:04:47;8.03;;;1.03;;
76699;SDS011;65628;44.498;0.166;2023-05-10T11:10:19;4.23;;;1.33;;
76699;SDS011;65628;44.498;0.166;2023-05-10T11:15:53;5.27;;;1.13;;
76699;SDS011;65628;44.498;0.166;2023-05-10T11:21:25;8.90;;;1.67;;
76699;SDS011;65628;44.498;0.166;2023-05-10T11:26:59;7.17;;;1.70;;
76699;SDS011;65628;44.498;0.166;2023-05-10T11:32:32;6.33;;;1.70;;
76699;SDS011;65628;44.498;0.166;2023-05-10T11:38:06;3.90;;;1.27;;
76699;SDS011;65628;44.498;0.166;2023-05-10T11:43:39;4.67;;;1.70;;
76699;SDS011;65628;44.498;0.166;2023-05-10T11:49:13;6.03;;;1.27;;
76699;SDS011;65628;44.498;0.166;2023-05-10T11:54:45;7.47;;;1.57;;
76699;SDS011;65628;44.498;0.166;2023-05-10T12:00:17;8.03;;;1.80;;
76699;SDS011;65628;44.498;0.166;2023-05-10T12:05:49;4.17;;;1.63;;
76699;SDS011;65628;44.498;0.166;2023-05-10T12:11:24;8.17;;;1.37;;
76699;SDS011;65628;44.498;0.166;2023-05-10T12:16:54;9.23;;;1.77;;
76699;SDS011;70081;44.524;0.194;2023-05-10T12:28:03;8.00;;;1.70;;
76699;SDS011;70081;44.524;0.194;2023-05-10T12:33:36;1.73;;;0.70;;
76699;SDS011;70081;44.524;0.194;2023-05-10T12:39:05;3.23;;;0.93;;
76699;SDS011;70081;44.524;0.194;2023-05-10T12:44:38;3.00;;;0.80;;
76699;SDS011;70081;44.524;0.194;2023-05-10T12:50:10;2.80;;;0.70;;
76699;SDS011;70081;44.524;0.194;2023-05-10T12:55:43;3.40;;;1.10;;
76699;SDS011;70081;44.524;0.194;2023-05-10T13:01:15;4.70;;;1.10;;
76699;SDS011;70081;44.524;0.194;2023-05-10T13:06:48;4.87;;;1.00;;
76699;SDS011;70081;44.524;0.194;2023-05-10T13:12:21;3.73;;;1.27;;
76699;SDS011;70081;44.524;0.194;2023-05-10T13:17:55;2.37;;;0.90;;
76699;SDS011;70081;44.524;0.194;2023-05-10T13:23:26;4.27;;;0.97;;
76699;SDS011;70081;44.524;0.194;2023-05-10T13:28:59;3.37;;;0.90;;
76699;SDS011;70081;44.524;0.194;2023-05-10T13:34:31;3.60;;;0.70;;
76699;SDS011;70081;44.524;0.194;2023-05-10T13:40:05;3.37;;;1.13;;
76699;SDS011;70081;44.524;0.194;2023-05-10T13:45:39;5.10;;;1.43;;
76699;SDS011;70081;44.524;0.194;2023-05-10T13:51:11;2.73;;;0.90;;
76699;SDS011;70081;44.524;0.194;2023-05-10T13:56:44;3.87;;;0.90;;
76699;SDS011;70081;44.524;0.194;2023-05-10T14:02:15;5.67;;;1.10;;
76699;SDS011;70081;44.524;0.194;2023-05-10T14:07:49;4.07;;;0.90;;
76699;SDS011;70081;44.524;0.194;2023-05-10T14:13:22;5.53;;;1.10;;
76699;SDS011;70081;44.524;0.194;2023-05-10T14:18:54;6.63;;;1.40;;
76699;SDS011;70081;44.524;0.194;2023-05-10T14:24:25;5.83;;;1.20;;
76699;SDS011;70081;44.524;0.194;2023-05-10T14:29:58;3.93;;;1.23;;
76699;SDS011;70081;44.524;0.194;2023-05-10T14:35:31;5.37;;;1.20;;
76699;SDS011;70081;44.524;0.194;2023-05-10T14:41:04;6.87;;;1.17;;
76699;SDS011;70081;44.524;0.194;2023-05-10T14:46:35;3.10;;;1.43;;
76699;SDS011;70081;44.524;0.194;2023-05-10T14:52:07;6.27;;;1.07;;
76699;SDS011;70081;44.524;0.194;2023-05-10T14:57:39;2.33;;;1.23;;
76699;SDS011;70081;44.524;0.194;2023-05-10T15:03:10;7.03;;;1.40;;
76699;SDS011;70081;44.524;0.194;2023-05-10T15:08:44;4.40;;;1.23;;
76699;SDS011;70081;44.524;0.194;2023-05-10T15:14:17;7.87;;;1.67;;
76699;SDS011;70081;44.524;0.194;2023-05-10T15:19:51;9.53;;;1.53;;
76699;SDS011;70081;44.524;0.194;2023-05-10T15:25:24;10.27;;;2.07;;
76699;SDS011;70081;44.524;0.194;2023-05-10T15:30:57;10.43;;;2.30;;
76699;SDS011;70081;44.524;0.194;2023-05-10T15:36:31;4.10;;;0.80;;
76699;SDS011;70081;44.524;0.194;2023-05-10T15:42:03;4.20;;;1.07;;
76699;SDS011;70081;44.524;0.194;2023-05-10T15:47:33;7.40;;;1.47;;
76699;SDS011;70081;44.524;0.194;2023-05-10T15:53:05;6.87;;;1.43;;
76699;SDS011;70081;44.524;0.194;2023-05-10T15:58:38;3.90;;;0.90;;
76699;SDS011;70081;44.524;0.194;2023-05-10T16:04:10;4.30;;;0.93;;
76699;SDS011;70081;44.524;0.194;2023-05-10T16:09:43;8.60;;;1.07;;
76699;SDS011;70081;44.524;0.194;2023-05-10T16:15:16;7.23;;;1.73;;
76699;SDS011;70081;44.524;0.194;2023-05-10T16:20:50;9.27;;;2.40;;
76699;SDS011;70081;44.524;0.194;2023-05-10T16:26:23;3.33;;;1.10;;
76699;SDS011;70081;44.524;0.194;2023-05-10T16:31:56;10.03;;;1.70;;
76699;SDS011;70081;44.524;0.194;2023-05-10T16:37:29;7.67;;;1.43;;
76699;SDS011;70081;44.524;0.194;2023-05-10T16:43:02;14.93;;;1.60;;
76699;SDS011;70081;44.524;0.194;2023-05-10T16:48:35;5.67;;;1.17;;
76699;SDS011;70081;44.524;0.194;2023-05-10T16:54:08;6.63;;;1.50;;
76699;SDS011;70081;44.524;0.194;2023-05-10T16:59:41;7.30;;;1.53;;
76699;SDS011;70081;44.524;0.194;2023-05-10T17:05:13;5.20;;;1.53;;
76699;SDS011;70081;44.524;0.194;2023-05-10T17:10:47;5.53;;;1.97;;
76699;SDS011;70081;44.524;0.194;2023-05-10T17:16:20;7.67;;;1.93;;
76699;SDS011;70081;44.524;0.194;2023-05-10T17:21:52;3.83;;;1.30;;
76699;SDS011;70081;44.524;0.194;2023-05-10T17:27:24;3.93;;;1.10;;
76699;SDS011;70081;44.524;0.194;2023-05-10T17:32:57;5.47;;;1.67;;
76699;SDS011;70081;44.524;0.194;2023-05-10T17:38:29;7.10;;;1.40;;
76699;SDS011;70081;44.524;0.194;2023-05-10T17:44:01;6.73;;;1.70;;
76699;SDS011;70081;44.524;0.194;2023-05-10T17:49:33;5.90;;;1.70;;
76699;SDS011;70081;44.524;0.194;2023-05-10T17:55:05;4.60;;;1.30;;
76699;SDS011;70081;44.524;0.194;2023-05-10T18:00:35;6.40;;;1.57;;
76699;SDS011;70081;44.524;0.194;2023-05-10T18:06:07;7.77;;;1.70;;
76699;SDS011;70081;44.524;0.194;2023-05-10T18:11:40;10.30;;;2.07;;
76699;SDS011;70081;44.524;0.194;2023-05-10T18:17:11;5.03;;;1.50;;
76699;SDS011;70081;44.524;0.194;2023-05-10T18:22:44;4.57;;;1.60;;
76699;SDS011;70081;44.524;0.194;2023-05-10T18:28:16;6.57;;;1.47;;
76699;SDS011;70081;44.524;0.194;2023-05-10T18:33:50;8.80;;;1.83;;
76699;SDS011;70081;44.524;0.194;2023-05-10T18:39:22;9.57;;;1.97;;
76699;SDS011;70081;44.524;0.194;2023-05-10T18:44:55;7.47;;;1.37;;
76699;SDS011;70081;44.524;0.194;2023-05-10T18:50:28;7.90;;;1.57;;
76699;SDS011;70081;44.524;0.194;2023-05-10T18:56:01;6.53;;;1.17;;
76699;SDS011;70081;44.524;0.194;2023-05-10T19:01:34;11.13;;;1.77;;
76699;SDS011;70081;44.524;0.194;2023-05-10T19:07:06;8.10;;;1.70;;
76699;SDS011;70081;44.524;0.194;2023-05-10T19:12:40;10.33;;;2.00;;
76699;SDS011;70081;44.524;0.194;2023-05-10T19:18:11;8.47;;;1.47;;
76699;SDS011;70081;44.524;0.194;2023-05-10T19:23:44;3.20;;;1.43;;
76699;SDS011;70081;44.524;0.194;2023-05-10T19:29:17;7.77;;;1.90;;
76699;SDS011;70081;44.524;0.194;2023-05-10T19:34:50;7.97;;;2.10;;
76699;SDS011;70081;44.524;0.194;2023-05-10T19:40:22;5.57;;;1.57;;
76699;SDS011;70081;44.524;0.194;2023-05-10T19:45:57;9.63;;;1.60;;
76699;SDS011;70081;44.524;0.194;2023-05-10T19:51:28;8.30;;;1.87;;
76699;SDS011;70081;44.524;0.194;2023-05-10T19:57:00;9.90;;;1.83;;
76699;SDS011;70081;44.524;0.194;2023-05-10T20:02:33;7.83;;;1.50;;
76699;SDS011;70081;44.524;0.194;2023-05-10T20:08:06;17.37;;;2.70;;
76699;SDS011;70081;44.524;0.194;2023-05-10T20:13:40;9.23;;;2.00;;
76699;SDS011;70081;44.524;0.194;2023-05-10T20:19:11;9.90;;;1.87;;
76699;SDS011;70081;44.524;0.194;2023-05-10T20:24:44;10.97;;;1.60;;
76699;SDS011;70081;44.524;0.194;2023-05-10T20:30:17;16.73;;;2.37;;
76699;SDS011;70081;44.524;0.194;2023-05-10T20:35:49;9.53;;;1.60;;
76699;SDS011;70081;44.524;0.194;2023-05-10T20:41:23;5.13;;;1.87;;
76699;SDS011;70081;44.524;0.194;2023-05-10T20:46:56;7.97;;;2.17;;
76699;SDS011;70081;44.524;0.194;2023-05-10T20:52:29;5.93;;;1.43;;
76699;SDS011;70081;44.524;0.194;2023-05-10T20:58:03;6.27;;;1.93;;
76699;SDS011;70081;44.524;0.194;2023-05-10T21:03:35;9.40;;;1.90;;
76699;SDS011;70081;44.524;0.194;2023-05-10T21:09:08;4.93;;;1.20;;
76699;SDS011;70081;44.524;0.194;2023-05-10T21:14:42;7.87;;;2.07;;
76699;SDS011;70081;44.524;0.194;2023-05-10T21:20:12;10.33;;;1.90;;
76699;SDS011;70081;44.524;0.194;2023-05-10T21:25:45;10.50;;;2.33;;
76699;SDS011;70081;44.524;0.194;2023-05-10T21:31:19;10.73;;;2.20;;
76699;SDS011;70081;44.524;0.194;2023-05-10T21:36:52;7.77;;;1.93;;
76699;SDS011;70081;44.524;0.194;2023-05-10T21:42:23;9.00;;;1.90;;
76699;SDS011;70081;44.524;0.194;2023-05-10T21:47:55;7.13;;;2.43;;
76699;SDS011;70081;44.524;0.194;2023-05-10T21:53:28;10.87;;;2.20;;
76699;SDS011;70081;44.524;0.194;2023-05-10T21:58:59;9.07;;;2.40;;
76699;SDS011;70081;44.524;0.194;2023-05-10T22:04:32;6.77;;;1.93;;
76699;SDS011;70081;44.524;0.194;2023-05-10T22:10:05;7.33;;;1.77;;
76699;SDS011;70081;44.524;0.194;2023-05-10T22:15:37;8.97;;;1.90;;
76699;SDS011;70081;44.524;0.194;2023-05-10T22:21:10;9.40;;;1.73;;
76699;SDS011;70081;44.524;0.194;2023-05-10T22:26:42;4.87;;;1.77;;
76699;SDS011;70081;44.524;0.194;2023-05-10T22:32:15;6.50;;;1.93;;
76699;SDS011;70081;44.524;0.194;2023-05-10T22:37:48;6.53;;;1.83;;
76699;SDS011;70081;44.524;0.194;2023-05-10T22:43:21;13.07;;;2.30;;
76699;SDS011;70081;44.524;0.194;2023-05-10T22:48:53;8.73;;;2.17;;
76699;SDS011;70081;44.524;0.194;2023-05-10T22:54:26;7.73;;;1.53;;
76699;SDS011;70081;44.524;0.194;2023-05-10T22:59:59;7.47;;;1.83;;
76699;SDS011;70081;44.524;0.194;2023-05-10T23:05:33;10.63;;;2.23;;
76699;SDS011;70081;44.524;0.194;2023-05-10T23:11:06;14.27;;;2.23;;
76699;SDS011;70081;44.524;0.194;2023-05-10T23:16:39;8.20;;;2.27;;
76699;SDS011;70081;44.524;0.194;2023-05-10T23:22:13;8.10;;;2.30;;
76699;SDS011;70081;44.524;0.194;2023-05-10T23:27:45;11.13;;;1.83;;
76699;SDS011;70081;44.524;0.194;2023-05-10T23:33:18;5.53;;;1.57;;
76699;SDS011;70081;44.524;0.194;2023-05-10T23:38:51;7.70;;;1.53;;
76699;SDS011;70081;44.524;0.194;2023-05-10T23:44:23;12.30;;;2.27;;
76699;SDS011;70081;44.524;0.194;2023-05-10T23:49:56;8.53;;;2.57;;
76699;SDS011;70081;44.524;0.194;2023-05-10T23:55:28;8.30;;;2.33;;
